createdAt,value
2018-09-21T00:01:21.564Z,20.70
2018-09-21T00:03:55.698Z,18.07
2018-09-21T00:06:24.673Z,17.13
2018-09-21T00:08:54.327Z,17.87
2018-09-21T00:11:23.253Z,23.23
2018-09-21T00:13:52.176Z,19.77
2018-09-21T00:16:21.815Z,15.37
2018-09-21T00:18:50.844Z,16.53
2018-09-21T00:21:19.753Z,17.20
2018-09-21T00:23:48.681Z,18.13
2018-09-21T00:26:17.526Z,16.13
2018-09-21T00:28:46.436Z,17.77
2018-09-21T00:31:15.303Z,18.00
2018-09-21T00:33:44.262Z,14.37
2018-09-21T00:36:13.132Z,16.03
2018-09-21T00:38:42.033Z,14.07
2018-09-21T00:41:10.928Z,17.43
2018-09-21T00:43:39.778Z,17.07
2018-09-21T00:46:08.747Z,17.27
2018-09-21T00:48:37.683Z,15.50
2018-09-21T00:51:06.618Z,21.10
2018-09-21T00:53:35.525Z,16.07
2018-09-21T00:56:04.456Z,16.23
2018-09-21T00:58:33.321Z,15.97
2018-09-21T01:01:02.267Z,17.50
2018-09-21T01:03:31.189Z,16.87
2018-09-21T01:06:00.123Z,18.03
2018-09-21T01:08:28.970Z,15.77
2018-09-21T01:10:57.884Z,16.73
2018-09-21T01:13:26.771Z,15.87
2018-09-21T01:15:55.640Z,14.03
2018-09-21T01:18:24.584Z,16.63
2018-09-21T01:20:53.542Z,18.97
2018-09-21T01:23:22.422Z,13.60
2018-09-21T01:26:05.633Z,12.87
2018-09-21T01:28:34.478Z,15.17
2018-09-21T01:31:03.313Z,16.83
2018-09-21T01:33:32.227Z,18.67
2018-09-21T01:36:01.173Z,17.80
2018-09-21T01:38:30.028Z,16.33
2018-09-21T01:40:58.941Z,16.83
2018-09-21T01:43:27.768Z,16.70
2018-09-21T01:45:56.658Z,13.17
2018-09-21T01:48:25.486Z,14.80
2018-09-21T01:50:54.446Z,17.00
2018-09-21T01:53:23.292Z,13.83
2018-09-21T01:55:52.191Z,17.10
2018-09-21T01:58:21.056Z,17.47
2018-09-21T02:00:50.243Z,14.37
2018-09-21T02:03:19.178Z,14.67
2018-09-21T02:05:48.087Z,16.17
2018-09-21T02:08:16.960Z,16.73
2018-09-21T02:10:45.891Z,15.37
2018-09-21T02:13:14.769Z,17.87
2018-09-21T02:15:43.744Z,17.80
2018-09-21T02:18:12.655Z,17.37
2018-09-21T02:20:41.527Z,14.00
2018-09-21T02:23:10.424Z,16.77
2018-09-21T02:25:39.325Z,14.27
2018-09-21T02:28:08.359Z,17.40
2018-09-21T02:30:37.268Z,15.67
2018-09-21T02:33:06.172Z,17.23
2018-09-21T02:35:34.999Z,15.27
2018-09-21T02:38:03.969Z,18.27
2018-09-21T02:40:32.823Z,14.87
2018-09-21T02:43:01.745Z,16.17
2018-09-21T02:45:30.713Z,15.47
2018-09-21T02:47:59.635Z,18.47
2018-09-21T02:50:28.552Z,16.37
2018-09-21T02:52:57.424Z,17.10
2018-09-21T02:55:26.380Z,17.70
2018-09-21T02:57:55.194Z,16.93
2018-09-21T03:00:24.220Z,18.87
2018-09-21T03:02:53.055Z,17.37
2018-09-21T03:05:21.987Z,15.57
2018-09-21T03:07:50.896Z,18.50
2018-09-21T03:10:19.775Z,15.37
2018-09-21T03:12:48.632Z,14.60
2018-09-21T03:15:17.550Z,16.37
2018-09-21T03:17:46.461Z,14.40
2018-09-21T03:20:15.347Z,16.90
2018-09-21T03:22:44.303Z,14.93
2018-09-21T03:25:13.241Z,15.00
2018-09-21T03:27:42.234Z,14.83
2018-09-21T03:30:11.090Z,16.73
2018-09-21T03:32:39.987Z,15.80
2018-09-21T03:35:08.945Z,15.50
2018-09-21T03:37:37.848Z,13.70
2018-09-21T03:40:06.840Z,17.50
2018-09-21T03:42:35.749Z,15.70
2018-09-21T03:45:04.725Z,13.90
2018-09-21T03:47:33.562Z,13.20
2018-09-21T03:50:02.512Z,16.70
2018-09-21T03:52:31.469Z,19.13
2018-09-21T03:55:00.300Z,15.10
2018-09-21T03:57:29.151Z,15.93
2018-09-21T03:59:58.038Z,15.43
2018-09-21T04:02:26.906Z,18.03
2018-09-21T04:04:55.917Z,15.40
2018-09-21T04:07:24.735Z,16.20
2018-09-21T04:09:53.576Z,13.73
2018-09-21T04:12:22.965Z,14.67
2018-09-21T04:14:52.786Z,15.20
2018-09-21T04:17:21.653Z,14.30
2018-09-21T04:19:50.513Z,14.67
2018-09-21T04:22:19.381Z,14.23
2018-09-21T04:24:48.302Z,15.17
2018-09-21T04:27:17.146Z,15.10
2018-09-21T04:29:46.075Z,14.77
2018-09-21T04:32:14.991Z,15.87
2018-09-21T04:34:43.873Z,24.40
2018-09-21T04:37:12.805Z,16.63
2018-09-21T04:39:41.733Z,19.60
2018-09-21T04:42:10.651Z,13.37
2018-09-21T04:44:39.527Z,19.10
2018-09-21T04:47:08.428Z,15.67
2018-09-21T04:49:37.293Z,17.57
2018-09-21T04:52:06.220Z,16.90
2018-09-21T04:54:35.142Z,18.20
2018-09-21T04:57:04.066Z,15.77
2018-09-21T04:59:32.943Z,16.40
2018-09-21T05:02:01.813Z,19.97
2018-09-21T05:04:30.808Z,20.63
2018-09-21T05:06:59.656Z,17.90
2018-09-21T05:09:28.524Z,16.30
2018-09-21T05:11:57.335Z,15.63
2018-09-21T05:14:26.281Z,14.93
2018-09-21T05:16:55.164Z,17.60
2018-09-21T05:19:24.017Z,17.77
2018-09-21T05:21:52.897Z,18.00
2018-09-21T05:24:21.786Z,16.47
2018-09-21T05:26:50.704Z,18.37
2018-09-21T05:29:19.643Z,18.73
2018-09-21T05:31:48.534Z,24.20
2018-09-21T05:34:17.459Z,18.60
2018-09-21T05:36:46.347Z,19.23
2018-09-21T05:39:15.591Z,27.47
2018-09-21T05:41:44.505Z,23.37
2018-09-21T05:44:13.382Z,30.83
2018-09-21T05:46:42.871Z,25.20
2018-09-21T05:49:11.740Z,27.83
2018-09-21T05:51:40.641Z,20.60
2018-09-21T05:54:09.487Z,22.37
2018-09-21T05:56:38.444Z,23.73
2018-09-21T05:59:07.377Z,19.67
2018-09-21T06:01:36.277Z,16.53
2018-09-21T06:04:05.177Z,17.00
2018-09-21T06:06:34.073Z,12.80
2018-09-21T06:09:03.043Z,11.33
2018-09-21T06:11:31.924Z,13.83
2018-09-21T06:14:00.798Z,11.57
2018-09-21T06:16:29.700Z,13.03
2018-09-21T06:18:58.618Z,9.23
2018-09-21T06:21:27.481Z,10.97
2018-09-21T06:23:56.370Z,10.47
2018-09-21T06:26:25.278Z,12.67
2018-09-21T06:28:54.261Z,9.83
2018-09-21T06:31:23.171Z,11.47
2018-09-21T06:33:52.122Z,12.00
2018-09-21T06:36:21.845Z,8.97
2018-09-21T06:38:50.736Z,9.77
2018-09-21T06:41:19.820Z,8.07
2018-09-21T06:43:48.724Z,8.30
2018-09-21T06:46:17.608Z,8.60
2018-09-21T06:48:46.506Z,8.87
2018-09-21T06:51:15.407Z,11.03
2018-09-21T06:53:44.247Z,8.27
2018-09-21T06:56:13.140Z,8.63
2018-09-21T06:58:41.973Z,8.97
2018-09-21T07:01:10.858Z,7.20
2018-09-21T07:03:39.768Z,11.87
2018-09-21T07:06:08.823Z,7.63
2018-09-21T07:08:37.708Z,10.00
2018-09-21T07:11:06.707Z,9.23
2018-09-21T07:13:35.575Z,7.07
2018-09-21T07:16:04.490Z,7.73
2018-09-21T07:18:33.393Z,7.83
2018-09-21T07:21:02.212Z,7.73
2018-09-21T07:23:31.123Z,7.33
2018-09-21T07:25:59.971Z,7.47
2018-09-21T07:28:28.817Z,8.23
2018-09-21T07:30:57.698Z,7.33
2018-09-21T07:33:26.570Z,6.97
2018-09-21T07:35:55.497Z,7.30
2018-09-21T07:38:24.477Z,8.83
2018-09-21T07:40:53.374Z,9.37
2018-09-21T07:43:22.263Z,8.00
2018-09-21T07:45:51.162Z,7.90
2018-09-21T07:48:19.977Z,9.13
2018-09-21T07:50:48.876Z,6.30
2018-09-21T07:53:17.789Z,7.20
2018-09-21T07:55:46.736Z,7.27
2018-09-21T07:58:15.612Z,9.20
2018-09-21T08:00:44.580Z,11.33
2018-09-21T08:03:13.503Z,8.40
2018-09-21T08:05:42.396Z,8.10
2018-09-21T08:08:11.435Z,7.00
2018-09-21T08:10:40.283Z,9.83
2018-09-21T08:13:09.142Z,6.77
2018-09-21T08:15:38.135Z,7.90
2018-09-21T08:18:07.052Z,7.03
2018-09-21T08:20:35.944Z,6.47
2018-09-21T08:23:04.938Z,6.63
2018-09-21T08:25:33.807Z,6.90
2018-09-21T08:28:02.712Z,7.43
2018-09-21T08:30:31.552Z,7.40
2018-09-21T08:33:00.475Z,6.37
2018-09-21T08:35:29.412Z,6.90
2018-09-21T08:37:58.325Z,7.40
2018-09-21T08:40:27.247Z,6.65
2018-09-21T08:42:56.146Z,13.83
2018-09-21T08:45:25.089Z,8.73
2018-09-21T08:47:53.973Z,7.30
2018-09-21T08:50:22.933Z,9.48
2018-09-21T08:52:51.796Z,8.50
2018-09-21T08:55:20.776Z,10.33
2018-09-21T08:57:49.684Z,9.30
2018-09-21T09:00:18.569Z,6.92
2018-09-21T09:02:47.637Z,9.05
2018-09-21T09:05:16.682Z,6.25
2018-09-21T09:07:45.506Z,8.23
2018-09-21T09:10:14.416Z,7.83
2018-09-21T09:12:43.665Z,7.17
2018-09-21T09:15:13.416Z,5.78
2018-09-21T09:17:42.988Z,8.08
2018-09-21T09:20:13.166Z,5.30
2018-09-21T09:22:43.361Z,7.87
2018-09-21T09:25:13.927Z,8.40
2018-09-21T09:27:44.081Z,10.13
2018-09-21T09:30:13.890Z,6.80
2018-09-21T09:32:46.186Z,12.75
2018-09-21T09:35:19.352Z,8.13
2018-09-21T09:37:48.462Z,7.00
2018-09-21T09:40:18.972Z,7.60
2018-09-21T09:42:49.597Z,8.20
2018-09-21T09:45:19.464Z,7.62
2018-09-21T09:47:48.318Z,6.90
2018-09-21T09:50:18.793Z,5.70
2018-09-21T09:52:48.431Z,7.10
2018-09-21T09:55:17.499Z,6.37
2018-09-21T09:57:47.603Z,9.63
2018-09-21T10:00:22.477Z,7.78
2018-09-21T10:02:53.337Z,5.10
2018-09-21T10:05:22.108Z,10.93
2018-09-21T10:07:52.753Z,6.60
2018-09-21T10:10:22.210Z,8.95
2018-09-21T10:12:52.512Z,9.20
2018-09-21T10:15:23.176Z,7.92
2018-09-21T10:17:54.183Z,6.12
2018-09-21T10:20:25.280Z,9.03
2018-09-21T10:22:56.275Z,4.47
2018-09-21T10:25:29.326Z,8.58
2018-09-21T10:27:59.567Z,9.43
2018-09-21T10:30:28.559Z,8.30
2018-09-21T10:32:58.883Z,10.10
2018-09-21T10:35:28.422Z,6.78
2018-09-21T10:37:57.073Z,6.97
2018-09-21T10:40:26.308Z,5.08
2018-09-21T10:42:55.149Z,7.92
2018-09-21T10:45:24.021Z,5.85
2018-09-21T10:47:52.896Z,7.25
2018-09-21T10:50:21.865Z,11.33
2018-09-21T10:52:50.821Z,6.50
2018-09-21T10:55:19.662Z,6.53
2018-09-21T10:57:50.428Z,8.48
2018-09-21T11:00:19.315Z,6.37
2018-09-21T11:02:48.183Z,8.75
2018-09-21T11:05:18.682Z,8.15
2018-09-21T11:07:49.323Z,9.70
2018-09-21T11:10:18.717Z,8.10
2018-09-21T11:12:47.507Z,10.08
2018-09-21T11:15:16.345Z,8.95
2018-09-21T11:17:47.979Z,7.12
2018-09-21T11:20:18.677Z,8.35
2018-09-21T11:22:48.229Z,7.78
2018-09-21T11:25:17.658Z,9.10
2018-09-21T11:27:46.544Z,9.70
2018-09-21T11:30:15.669Z,12.73
2018-09-21T11:32:47.756Z,9.68
2018-09-21T11:35:17.512Z,15.28
2018-09-21T11:37:50.646Z,14.75
2018-09-21T11:40:22.733Z,7.50
2018-09-21T11:42:52.021Z,12.30
2018-09-21T11:45:31.177Z,11.12
2018-09-21T11:48:03.673Z,12.20
2018-09-21T11:50:33.462Z,9.58
2018-09-21T11:53:10.497Z,13.22
2018-09-21T11:55:46.076Z,10.58
2018-09-21T11:58:20.542Z,14.55
2018-09-21T12:00:51.701Z,10.58
2018-09-21T12:03:20.758Z,10.60
2018-09-21T12:05:49.817Z,12.85
2018-09-21T12:08:21.545Z,9.45
2018-09-21T12:11:01.546Z,15.85
2018-09-21T12:13:33.099Z,41.70
2018-09-21T12:16:03.688Z,10.60
2018-09-21T12:18:35.280Z,12.07
2018-09-21T12:21:11.557Z,15.32
2018-09-21T12:23:43.505Z,14.83
2018-09-21T12:26:13.430Z,10.15
2018-09-21T12:28:43.532Z,14.85
2018-09-21T12:31:12.975Z,16.95
2018-09-21T12:33:49.875Z,14.90
2018-09-21T12:36:19.232Z,16.02
2018-09-21T12:38:48.452Z,14.05
2018-09-21T12:41:22.761Z,15.60
2018-09-21T12:43:54.771Z,22.10
2018-09-21T12:46:27.366Z,15.08
2018-09-21T12:49:02.931Z,13.35
2018-09-21T12:51:35.025Z,12.95
2018-09-21T12:54:05.163Z,11.38
2018-09-21T12:56:35.152Z,13.98
2018-09-21T12:59:07.199Z,14.20
2018-09-21T13:01:41.936Z,13.22
2018-09-21T13:04:11.936Z,7.33
2018-09-21T13:06:41.246Z,8.68
2018-09-21T13:09:10.203Z,12.95
2018-09-21T13:11:39.163Z,17.15
2018-09-21T13:14:08.161Z,15.35
2018-09-21T13:16:36.963Z,9.58
2018-09-21T13:19:05.870Z,14.07
2018-09-21T13:21:34.925Z,9.13
2018-09-21T13:24:03.773Z,13.70
2018-09-21T13:26:32.953Z,11.12
2018-09-21T13:29:02.089Z,11.50
2018-09-21T13:31:30.961Z,12.85
2018-09-21T13:34:00.880Z,13.47
2018-09-21T13:36:30.781Z,8.83
2018-09-21T13:38:59.570Z,11.68
2018-09-21T13:41:29.062Z,13.15
2018-09-21T13:43:58.019Z,8.78
2018-09-21T13:46:27.330Z,10.50
2018-09-21T13:48:56.504Z,9.63
2018-09-21T13:51:25.400Z,9.30
2018-09-21T13:53:54.293Z,10.85
2018-09-21T13:56:23.219Z,9.77
2018-09-21T13:58:52.059Z,11.55
2018-09-21T14:01:27.410Z,16.93
2018-09-21T14:03:56.731Z,13.37
2018-09-21T14:06:25.665Z,17.15
2018-09-21T14:08:54.633Z,7.40
2018-09-21T14:11:23.486Z,12.03
2018-09-21T14:13:52.487Z,6.17
2018-09-21T14:16:21.474Z,10.55
2018-09-21T14:18:50.420Z,7.80
2018-09-21T14:21:19.312Z,8.27
2018-09-21T14:23:48.209Z,11.28
2018-09-21T14:26:17.029Z,7.97
2018-09-21T14:28:45.986Z,18.20
2018-09-21T14:31:14.797Z,33.60
2018-09-21T14:33:43.857Z,19.40
2018-09-21T14:36:13.054Z,26.33
2018-09-21T14:38:41.890Z,17.27
2018-09-21T14:41:10.760Z,10.70
2018-09-21T14:43:39.731Z,13.40
2018-09-21T14:46:08.519Z,12.77
2018-09-21T14:48:37.925Z,15.30
2018-09-21T14:51:07.035Z,10.40
2018-09-21T14:53:35.947Z,6.63
2018-09-21T14:56:04.855Z,5.13
2018-09-21T14:58:33.633Z,4.63
2018-09-21T15:01:02.825Z,3.87
2018-09-21T15:03:31.687Z,4.90
2018-09-21T15:06:00.657Z,2.50
2018-09-21T15:08:33.528Z,3.57
2018-09-21T15:11:02.488Z,3.67
2018-09-21T15:13:31.230Z,1.03
2018-09-21T15:16:00.108Z,2.20
2018-09-21T15:18:30.035Z,1.47
2018-09-21T15:20:58.975Z,2.50
2018-09-21T15:23:28.015Z,2.30
2018-09-21T15:25:56.812Z,3.10
2018-09-21T15:28:25.645Z,2.50
2018-09-21T15:30:55.467Z,2.80
2018-09-21T15:33:25.423Z,1.37
2018-09-21T15:35:55.335Z,4.23
2018-09-21T15:38:24.334Z,1.63
2018-09-21T15:40:53.268Z,1.60
2018-09-21T15:43:22.081Z,3.47
2018-09-21T15:45:50.904Z,4.43
2018-09-21T15:48:19.976Z,1.70
2018-09-21T15:50:49.266Z,4.07
2018-09-21T15:53:18.232Z,4.00
2018-09-21T15:55:47.454Z,3.53
2018-09-21T15:58:16.542Z,1.90
2018-09-21T16:00:47.832Z,3.33
2018-09-21T16:03:17.170Z,3.77
2018-09-21T16:05:46.068Z,4.83
2018-09-21T16:08:24.665Z,4.53
2018-09-21T16:10:53.734Z,1.87
2018-09-21T16:13:23.633Z,3.13
2018-09-21T16:15:52.478Z,5.60
2018-09-21T16:18:21.263Z,2.97
2018-09-21T16:20:50.466Z,6.40
2018-09-21T16:23:21.986Z,3.23
2018-09-21T16:25:51.126Z,3.60
2018-09-21T16:28:19.915Z,1.77
2018-09-21T16:30:48.872Z,4.27
2018-09-21T16:33:18.113Z,4.20
2018-09-21T16:35:53.337Z,2.53
2018-09-21T16:38:32.326Z,5.83
2018-09-21T16:41:03.709Z,4.43
2018-09-21T16:43:33.734Z,2.93
2018-09-21T16:46:05.456Z,4.40
2018-09-21T16:48:34.638Z,6.20
2018-09-21T16:51:03.876Z,7.30
2018-09-21T16:53:33.830Z,3.13
2018-09-21T16:56:02.941Z,3.83
2018-09-21T16:58:32.707Z,5.83
2018-09-21T17:01:02.162Z,5.03
2018-09-21T17:03:31.254Z,5.10
2018-09-21T17:06:01.601Z,7.20
2018-09-21T17:08:30.460Z,3.33
2018-09-21T17:11:00.378Z,3.30
2018-09-21T17:13:29.592Z,5.23
2018-09-21T17:15:58.560Z,6.17
2018-09-21T17:18:27.501Z,4.87
2018-09-21T17:20:56.482Z,5.10
2018-09-21T17:23:25.351Z,8.40
2018-09-21T17:25:54.892Z,3.47
2018-09-21T17:28:24.839Z,5.87
2018-09-21T17:30:53.795Z,4.03
2018-09-21T17:33:22.693Z,3.33
2018-09-21T17:35:51.742Z,5.80
2018-09-21T17:38:20.599Z,2.40
2018-09-21T17:40:49.696Z,6.70
2018-09-21T17:43:18.730Z,3.07
2018-09-21T17:45:47.883Z,5.83
2018-09-21T17:48:16.930Z,5.27
2018-09-21T17:50:46.622Z,5.70
2018-09-21T17:53:16.663Z,6.53
2018-09-21T17:55:45.772Z,8.80
2018-09-21T17:58:15.329Z,8.33
2018-09-21T18:00:44.371Z,6.17
2018-09-21T18:03:13.452Z,7.03
2018-09-21T18:05:42.436Z,3.73
2018-09-21T18:08:11.351Z,5.40
2018-09-21T18:10:40.369Z,7.10
2018-09-21T18:13:09.387Z,8.67
2018-09-21T18:15:38.280Z,5.20
2018-09-21T18:18:07.433Z,7.93
2018-09-21T18:20:36.422Z,4.77
2018-09-21T18:23:06.079Z,3.30
2018-09-21T18:25:35.087Z,8.77
2018-09-21T18:28:04.013Z,5.30
2018-09-21T18:30:33.032Z,7.27
2018-09-21T18:33:01.972Z,6.97
2018-09-21T18:35:31.032Z,6.43
2018-09-21T18:38:00.471Z,6.17
2018-09-21T18:40:29.387Z,4.87
2018-09-21T18:42:59.556Z,6.17
2018-09-21T18:45:28.522Z,9.40
2018-09-21T18:47:57.580Z,8.80
2018-09-21T18:50:26.871Z,7.83
2018-09-21T18:52:55.780Z,5.27
2018-09-21T18:55:24.773Z,6.97
2018-09-21T18:57:53.770Z,6.63
2018-09-21T19:00:22.786Z,8.27
2018-09-21T19:02:51.904Z,10.57
2018-09-21T19:05:20.867Z,5.57
2018-09-21T19:07:49.984Z,5.03
2018-09-21T19:10:19.016Z,8.17
2018-09-21T19:12:47.973Z,6.73
2018-09-21T19:15:17.075Z,7.70
2018-09-21T19:17:46.102Z,7.00
2018-09-21T19:20:15.098Z,6.67
2018-09-21T19:22:44.129Z,5.47
2018-09-21T19:25:13.387Z,7.53
2018-09-21T19:27:42.334Z,6.70
2018-09-21T19:30:11.419Z,6.50
2018-09-21T19:32:41.319Z,7.17
2018-09-21T19:35:10.561Z,8.43
2018-09-21T19:37:40.113Z,5.43
2018-09-21T19:40:09.513Z,8.60
2018-09-21T19:42:39.547Z,4.60
2018-09-21T19:45:08.461Z,9.97
2018-09-21T19:47:37.743Z,5.10
2018-09-21T19:50:07.252Z,5.73
2018-09-21T19:52:36.246Z,9.07
2018-09-21T19:55:05.477Z,9.67
2018-09-21T19:57:34.561Z,8.93
2018-09-21T20:00:03.521Z,6.13
2018-09-21T20:02:34.659Z,5.57
2018-09-21T20:05:03.858Z,8.30
2018-09-21T20:07:32.837Z,6.50
2018-09-21T20:10:01.850Z,4.57
2018-09-21T20:12:30.769Z,5.87
2018-09-21T20:14:59.739Z,6.13
2018-09-21T20:17:28.811Z,4.13
2018-09-21T20:19:58.237Z,5.43
2018-09-21T20:22:27.200Z,5.87
2018-09-21T20:24:56.217Z,4.30
2018-09-21T20:27:25.199Z,6.17
2018-09-21T20:29:58.376Z,7.63
2018-09-21T20:32:32.560Z,5.03
2018-09-21T20:35:01.613Z,3.37
2018-09-21T20:37:30.784Z,7.97
2018-09-21T20:39:59.841Z,6.27
2018-09-21T20:42:28.716Z,8.43
2018-09-21T20:44:57.764Z,4.53
2018-09-21T20:47:26.759Z,5.30
2018-09-21T20:49:55.750Z,6.10
2018-09-21T20:52:24.706Z,3.07
2018-09-21T20:54:53.733Z,3.40
2018-09-21T20:57:22.805Z,5.83
2018-09-21T20:59:51.875Z,6.50
2018-09-21T21:02:20.955Z,5.37
2018-09-21T21:04:49.990Z,4.70
2018-09-21T21:07:19.031Z,4.73
2018-09-21T21:09:49.179Z,5.10
2018-09-21T21:12:18.344Z,7.83
2018-09-21T21:14:47.340Z,5.23
2018-09-21T21:17:16.614Z,5.00
2018-09-21T21:19:45.624Z,5.23
2018-09-21T21:22:14.653Z,9.30
2018-09-21T21:24:43.569Z,5.33
2018-09-21T21:27:12.536Z,3.97
2018-09-21T21:29:41.489Z,7.33
2018-09-21T21:32:10.455Z,4.70
2018-09-21T21:34:39.476Z,4.70
2018-09-21T21:37:09.566Z,4.17
2018-09-21T21:39:38.693Z,6.03
2018-09-21T21:42:07.736Z,4.00
2018-09-21T21:44:36.805Z,4.23
2018-09-21T21:47:05.858Z,8.40
2018-09-21T21:49:34.865Z,9.63
2018-09-21T21:52:04.015Z,7.00
2018-09-21T21:54:33.504Z,6.07
2018-09-21T21:57:02.584Z,3.37
2018-09-21T21:59:31.561Z,4.40
2018-09-21T22:02:00.818Z,6.57
2018-09-21T22:04:29.757Z,4.63
2018-09-21T22:06:59.357Z,2.60
2018-09-21T22:09:28.247Z,4.70
2018-09-21T22:12:02.597Z,5.60
2018-09-21T22:14:31.526Z,4.37
2018-09-21T22:17:00.620Z,3.50
2018-09-21T22:19:29.789Z,5.37
2018-09-21T22:21:58.990Z,5.33
2018-09-21T22:24:27.996Z,3.40
2018-09-21T22:26:57.192Z,4.00
2018-09-21T22:29:26.133Z,3.23
2018-09-21T22:31:55.176Z,3.37
2018-09-21T22:34:24.123Z,5.67
2018-09-21T22:36:53.160Z,4.00
2018-09-21T22:39:22.155Z,4.63
2018-09-21T22:41:51.178Z,4.27
2018-09-21T22:44:20.160Z,6.17
2018-09-21T22:46:49.387Z,4.47
2018-09-21T22:49:21.979Z,4.23
2018-09-21T22:51:51.203Z,5.17
2018-09-21T22:54:20.243Z,3.97
2018-09-21T22:56:49.458Z,4.67
2018-09-21T22:59:18.521Z,2.47
2018-09-21T23:01:47.486Z,4.40
2018-09-21T23:04:16.566Z,4.73
2018-09-21T23:06:45.620Z,5.67
2018-09-21T23:09:14.797Z,5.90
2018-09-21T23:11:43.849Z,6.00
2018-09-21T23:14:12.820Z,6.63
2018-09-21T23:16:41.890Z,5.73
2018-09-21T23:19:10.924Z,5.17
2018-09-21T23:21:40.066Z,5.60
2018-09-21T23:24:09.004Z,2.40
2018-09-21T23:26:37.953Z,3.27
2018-09-21T23:29:06.908Z,4.60
2018-09-21T23:31:35.758Z,4.03
2018-09-21T23:34:04.670Z,3.67
2018-09-21T23:36:33.576Z,5.60
2018-09-21T23:39:02.589Z,6.13
2018-09-21T23:41:31.509Z,6.43
2018-09-21T23:44:00.441Z,8.00
2018-09-21T23:46:29.359Z,4.60
2018-09-21T23:48:58.273Z,2.40
2018-09-21T23:51:27.187Z,6.03
2018-09-21T23:53:56.152Z,2.80
2018-09-21T23:56:25.107Z,5.30
2018-09-21T23:58:54.075Z,2.40
